Time;durP1;ratioP1;P1;durP2;ratioP2;P2;SDS_P1;SDS_P2;PMS_P1;PMS_P2;Temp;Humidity;BMP_temperature;BMP_pressure;BME280_temperature;BME280_humidity;BME280_pressure;Samples;Min_cycle;Max_cycle;Signal;HPM_P1;HPM_P2
2022/03/03 00:01:06;;;;;;;;;83.00;59.50;;;;;9.96;59.89;101406.53;5059534;28;45191;-63
2022/03/03 00:03:31;;;;;;;;;78.50;58.50;;;;;9.94;59.94;101399.66;5059855;28;45149;-63
2022/03/03 00:05:57;;;;;;;;;82.00;61.50;;;;;9.92;60.12;101402.28;5058048;28;47010;-63
2022/03/03 00:08:22;;;;;;;;;79.33;61.33;;;;;9.91;60.13;101400.56;5057874;28;45479;-64
2022/03/03 00:10:47;;;;;;;;;84.25;62.25;;;;;9.90;60.51;101398.84;5058609;28;45367;-63
2022/03/03 00:13:13;;;;;;;;;74.33;61.33;;;;;9.86;60.42;101391.13;5058113;28;45249;-63
2022/03/03 00:15:38;;;;;;;;;77.25;59.00;;;;;9.89;60.55;101397.13;5056733;28;45610;-63
2022/03/03 00:18:03;;;;;;;;;86.75;62.75;;;;;9.88;60.64;101397.16;5057595;28;45501;-63
2022/03/03 00:20:29;;;;;;;;;83.00;62.00;;;;;9.86;60.90;101392.00;5057197;28;45299;-63
2022/03/03 00:22:55;;;;;;;;;87.00;60.50;;;;;9.86;61.20;101393.72;5058384;28;45394;-62
2022/03/03 00:25:21;;;;;;;;;81.25;60.75;;;;;9.85;61.11;101387.69;5057509;28;46100;-62
2022/03/03 00:27:46;;;;;;;;;87.50;63.25;;;;;9.86;61.29;101396.31;5057873;28;45468;-63
2022/03/03 00:30:12;;;;;;;;;79.67;61.00;;;;;9.86;61.65;101396.31;5057579;28;45417;-64
2022/03/03 00:32:40;;;;;;;;;81.00;61.00;;;;;9.87;61.33;101393.72;5061717;28;45492;-64
2022/03/03 00:35:08;;;;;;;;;88.50;64.00;;;;;9.86;61.23;101392.00;5071436;28;46585;-64
2022/03/03 00:37:33;;;;;;;;;78.75;59.25;;;;;9.87;61.30;101392.84;5068853;28;45873;-64
2022/03/03 00:39:58;;;;;;;;;82.25;62.50;;;;;9.88;61.27;101397.16;5069086;28;45378;-64
2022/03/03 00:42:24;;;;;;;;;78.50;58.00;;;;;9.89;61.28;101397.13;5068156;27;45512;-64
2022/03/03 00:44:49;;;;;;;;;82.00;63.25;;;;;9.89;61.29;101402.31;5063346;28;45496;-64
2022/03/03 00:47:14;;;;;;;;;80.67;61.00;;;;;9.89;61.52;101398.88;5099029;27;46070;-64
2022/03/03 00:49:40;;;;;;;;;82.75;61.00;;;;;9.87;61.33;101393.72;5068205;27;45502;-64
2022/03/03 00:52:05;;;;;;;;;85.25;62.75;;;;;9.88;61.30;101395.41;5069322;27;45587;-64
2022/03/03 00:54:31;;;;;;;;;81.50;61.25;;;;;9.90;61.34;101398.84;5066839;28;45540;-64
2022/03/03 00:56:56;;;;;;;;;83.75;58.25;;;;;9.90;61.86;101403.19;5068738;27;45452;-64
2022/03/03 00:59:22;;;;;;;;;87.00;62.75;;;;;9.85;62.20;101399.81;5067564;27;45505;-64
2022/03/03 01:01:47;;;;;;;;;78.50;58.75;;;;;9.82;61.93;101398.09;5066184;28;45443;-63
2022/03/03 01:04:13;;;;;;;;;80.75;61.00;;;;;9.80;61.89;101401.56;5068186;28;47024;-62
2022/03/03 01:06:39;;;;;;;;;60.75;37.25;;;;;9.77;62.69;101397.28;5062600;27;45538;-63
2022/03/03 01:09:05;;;;;;;;;87.25;62.25;;;;;9.75;62.24;101397.31;5066991;28;45473;-62
2022/03/03 01:11:31;;;;;;;;;81.50;60.75;;;;;9.75;62.55;101396.47;5068689;28;45408;-63
2022/03/03 01:13:56;;;;;;;;;83.75;61.25;;;;;9.77;62.58;101399.88;5066028;28;45582;-63
2022/03/03 01:16:21;;;;;;;;;81.75;61.25;;;;;9.78;62.88;101396.41;5067405;28;45488;-63
2022/03/03 01:18:47;;;;;;;;;76.75;60.25;;;;;9.79;62.40;101408.50;5070991;28;45377;-63
2022/03/03 01:21:12;;;;;;;;;83.33;61.00;;;;;9.79;62.46;101399.88;5067822;27;45389;-63
2022/03/03 01:23:37;;;;;;;;;88.25;63.00;;;;;9.79;62.55;101395.53;5066995;28;46320;-63
2022/03/03 01:26:03;;;;;;;;;86.25;62.50;;;;;9.78;62.59;101393.81;5068114;27;45599;-63
2022/03/03 01:28:28;;;;;;;;;83.75;61.00;;;;;9.77;62.20;101392.09;5072592;27;45418;-63
2022/03/03 01:30:54;;;;;;;;;83.75;62.00;;;;;9.71;62.57;101384.41;5071991;27;45454;-63
2022/03/03 01:33:19;;;;;;;;;82.75;61.75;;;;;9.70;63.11;101395.66;5070871;28;46086;-63
2022/03/03 01:35:44;;;;;;;;;86.33;63.33;;;;;9.68;62.91;101379.25;5071204;27;45473;-64
2022/03/03 01:38:10;;;;;;;;;83.50;62.25;;;;;9.63;63.23;101384.53;5071588;28;45863;-63
2022/03/03 01:40:36;;;;;;;;;85.50;64.00;;;;;9.63;63.13;101384.53;5070771;28;45294;-63
2022/03/03 01:43:01;;;;;;;;;87.00;65.25;;;;;9.62;63.36;101384.53;5070847;28;45433;-63
2022/03/03 01:45:27;;;;;;;;;85.25;62.25;;;;;9.62;63.38;101392.31;5070754;28;45460;-63
2022/03/03 01:47:52;;;;;;;;;89.00;64.00;;;;;9.61;63.72;101385.38;5074226;28;45319;-63
2022/03/03 01:50:18;;;;;;;;;84.25;62.00;;;;;9.61;63.50;101385.38;5072070;27;45364;-63
2022/03/03 01:52:43;;;;;;;;;86.00;62.75;;;;;9.63;63.56;101386.25;5069879;27;46208;-63
2022/03/03 01:55:10;;;;;;;;;90.00;65.75;;;;;9.63;63.71;101381.06;5070030;28;45214;-63
2022/03/03 01:57:36;;;;;;;;;86.50;64.00;;;;;9.66;63.91;101378.44;5070193;28;45357;-62
2022/03/03 02:00:04;;;;;;;;;81.00;61.00;;;;;9.68;63.81;101371.47;5072390;27;45156;-63
2022/03/03 02:02:30;;;;;;;;;91.00;65.00;;;;;9.71;63.89;101372.28;5069161;27;46435;-63
2022/03/03 02:04:55;;;;;;;;;81.50;60.25;;;;;9.77;63.77;101377.38;5100684;27;45732;-63
2022/03/03 02:07:21;;;;;;;;;81.25;60.00;;;;;9.82;63.57;101371.28;5072450;28;45505;-63
2022/03/03 02:09:46;;;;;;;;;85.00;61.50;;;;;9.85;63.26;101376.44;5072191;27;45322;-63
2022/03/03 02:12:12;;;;;;;;;88.25;63.75;;;;;9.85;63.41;101372.09;5069511;27;46324;-64
2022/03/03 02:14:44;;;;;;;;;85.00;62.50;;;;;9.88;63.62;101371.19;5071033;27;45267;-63
2022/03/03 02:17:10;;;;;;;;;85.75;64.25;;;;;9.89;63.07;101370.31;5070344;27;45352;-63
2022/03/03 02:19:37;;;;;;;;;84.25;62.50;;;;;9.90;63.71;101372.88;5070997;28;45309;-63
2022/03/03 02:22:02;;;;;;;;;90.50;64.25;;;;;9.91;63.91;101377.19;5069647;28;47841;-63
2022/03/03 02:24:28;;;;;;;;;84.00;63.50;;;;;9.94;63.71;101374.56;5071248;28;45381;-63
2022/03/03 02:26:53;;;;;;;;;87.75;64.50;;;;;9.98;63.78;101367.56;5067898;27;45488;-63
2022/03/03 02:29:19;;;;;;;;;83.00;62.25;;;;;10.00;63.51;101366.66;5104714;27;45565;-63
2022/03/03 02:31:44;;;;;;;;;79.75;59.50;;;;;10.02;63.71;101364.94;5068480;28;46456;-62
2022/03/03 02:34:11;;;;;;;;;87.50;62.00;;;;;10.05;63.43;101364.88;5069453;28;45192;-63
2022/03/03 02:36:36;;;;;;;;;80.25;59.00;;;;;10.10;63.17;101366.53;5061450;28;45336;-62
2022/03/03 02:39:04;;;;;;;;;84.00;60.25;;;;;10.13;63.70;101359.56;5060558;28;45247;-62
2022/03/03 02:41:30;;;;;;;;;89.00;64.75;;;;;10.17;63.28;101361.22;5061279;28;45417;-63
2022/03/03 02:43:57;;;;;;;;;82.00;61.00;;;;;10.20;63.17;101362.91;5061431;28;45371;-62
2022/03/03 02:46:23;;;;;;;;;87.75;61.75;;;;;10.23;63.17;101360.31;5059630;28;45395;-63
2022/03/03 02:48:48;;;;;;;;;95.75;70.75;;;;;10.23;62.90;101355.13;5061607;28;45532;-63
2022/03/03 02:51:14;;;;;;;;;94.00;71.00;;;;;10.24;63.13;101349.91;5061078;28;46174;-63
2022/03/03 02:53:39;;;;;;;;;92.25;68.50;;;;;10.24;63.25;101351.63;5061264;28;45207;-62
2022/03/03 02:56:06;;;;;;;;;93.50;84.00;;;;;10.26;63.25;101347.28;5061388;28;45315;-62
2022/03/03 02:58:31;;;;;;;;;112.25;85.75;;;;;10.25;63.33;101340.38;5061444;28;45562;-63
2022/03/03 03:00:57;;;;;;;;;107.50;89.25;;;;;10.29;62.99;101347.22;5061111;28;46189;-63
2022/03/03 03:03:23;;;;;;;;;105.50;87.75;;;;;10.30;62.89;101341.13;5061432;28;45296;-62
2022/03/03 03:05:48;;;;;;;;;101.00;74.50;;;;;10.31;63.23;101338.50;5061152;28;45398;-62
2022/03/03 03:08:15;;;;;;;;;90.25;65.50;;;;;10.30;63.23;101330.75;5061397;28;45406;-63
2022/03/03 03:10:41;;;;;;;;;85.00;61.50;;;;;10.31;63.35;101337.66;5059600;28;48214;-63
2022/03/03 03:13:08;;;;;;;;;52.50;35.25;;;;;10.31;63.51;101324.66;5061226;28;45521;-62
2022/03/03 03:15:34;;;;;;;;;82.00;62.25;;;;;10.33;62.59;101323.75;5061155;28;45307;-62
2022/03/03 03:18:14;;;;;;;;;84.50;64.00;;;;;10.33;62.78;101326.34;5059870;28;45387;-63
2022/03/03 03:20:42;;;;;;;;;83.50;61.00;;;;;10.32;63.28;101315.97;5060166;28;45671;-62
2022/03/03 03:23:08;;;;;;;;;85.00;61.50;;;;;10.32;62.77;101318.59;5061032;28;45458;-62
2022/03/03 03:25:37;;;;;;;;;79.75;57.25;;;;;10.30;63.23;101312.56;5060991;28;45493;-63
2022/03/03 03:28:03;;;;;;;;;82.25;58.25;;;;;10.29;63.43;101313.44;5060777;28;45211;-62
2022/03/03 03:30:28;;;;;;;;;69.00;47.00;;;;;10.30;63.25;101315.16;5060809;28;46690;-63
2022/03/03 03:32:54;;;;;;;;;83.25;58.25;;;;;10.30;63.27;101307.38;5060715;28;45480;-63
2022/03/03 03:35:19;;;;;;;;;80.25;59.00;;;;;10.30;63.79;101305.63;5059386;28;45361;-63
2022/03/03 03:37:45;;;;;;;;;80.75;61.00;;;;;10.35;63.83;101305.53;5076289;28;45684;-63
2022/03/03 03:40:10;;;;;;;;;79.75;59.00;;;;;10.38;63.59;101302.88;5060782;28;45349;-63
2022/03/03 03:42:36;;;;;;;;;85.50;60.00;;;;;10.38;63.51;101302.03;5060439;28;45280;-63
2022/03/03 03:45:02;;;;;;;;;82.00;61.50;;;;;10.40;63.14;101305.44;5060912;28;45305;-60
2022/03/03 03:47:28;;;;;;;;;80.75;60.25;;;;;10.38;62.99;101297.69;5060303;28;45524;-61
2022/03/03 03:49:53;;;;;;;;;76.25;58.75;;;;;10.39;63.66;101294.19;5075805;28;45386;-60
2022/03/03 03:52:18;;;;;;;;;82.75;59.50;;;;;10.41;63.82;101292.47;5060395;28;45246;-60
2022/03/03 03:54:44;;;;;;;;;78.00;57.25;;;;;10.44;63.50;101284.59;5075838;28;45280;-60
2022/03/03 03:57:09;;;;;;;;;74.50;55.50;;;;;10.46;63.55;101282.84;5060432;28;45586;-60
2022/03/03 03:59:35;;;;;;;;;80.50;57.25;;;;;10.48;63.43;101275.00;5060182;28;46416;-60
2022/03/03 04:02:00;;;;;;;;;77.50;57.50;;;;;10.53;63.30;101286.16;5060365;28;45238;-60
2022/03/03 04:04:25;;;;;;;;;80.75;56.25;;;;;10.54;63.29;101275.75;5060253;28;45635;-60
2022/03/03 04:06:51;;;;;;;;;75.33;57.00;;;;;10.57;63.17;101280.00;5060135;28;45295;-61
2022/03/03 04:09:16;;;;;;;;;80.75;60.25;;;;;10.58;63.43;101277.38;5060145;28;45322;-64
2022/03/03 04:11:41;;;;;;;;;78.25;60.50;;;;;10.59;63.38;101273.03;5060349;28;45237;-64
2022/03/03 04:14:07;;;;;;;;;82.50;59.00;;;;;10.58;63.28;101271.34;5060110;28;45316;-63
2022/03/03 04:16:32;;;;;;;;;78.50;58.25;;;;;10.58;63.29;101274.78;5060108;28;45339;-63
2022/03/03 04:18:58;;;;;;;;;77.00;58.25;;;;;10.59;63.21;101266.09;5059797;28;45161;-65
2022/03/03 04:21:23;;;;;;;;;81.75;61.50;;;;;10.58;63.20;101266.13;5059591;28;45267;-64
2022/03/03 04:23:48;;;;;;;;;78.50;58.00;;;;;10.55;63.61;101259.25;5059828;28;45288;-63
2022/03/03 04:26:14;;;;;;;;;75.75;59.00;;;;;10.57;63.72;101256.63;5075619;28;45640;-63
2022/03/03 04:28:40;;;;;;;;;82.25;59.75;;;;;10.57;63.82;101259.22;5059685;28;45315;-61
2022/03/03 04:31:05;;;;;;;;;81.50;61.00;;;;;10.58;63.40;101248.81;5059838;28;45319;-62
2022/03/03 04:33:31;;;;;;;;;80.75;58.25;;;;;10.60;63.63;101246.16;5059855;28;45847;-62
2022/03/03 04:35:57;;;;;;;;;81.50;58.25;;;;;10.59;63.44;101240.13;5059773;28;45228;-64
2022/03/03 04:38:24;;;;;;;;;75.00;57.75;;;;;10.60;63.72;101246.16;5059491;28;46198;-65
2022/03/03 04:40:49;;;;;;;;;83.25;61.25;;;;;10.59;63.60;101244.47;5058501;28;45681;-66
2022/03/03 04:43:14;;;;;;;;;80.25;60.00;;;;;10.58;63.22;101237.53;5059630;28;45161;-65
2022/03/03 04:45:42;;;;;;;;;85.25;64.00;;;;;10.59;63.81;101239.25;5059456;28;45267;-65
2022/03/03 04:48:08;;;;;;;;;81.00;59.00;;;;;10.61;63.61;101233.16;5056650;28;46068;-64
2022/03/03 04:50:34;;;;;;;;;78.25;59.75;;;;;10.63;63.89;101238.34;5059436;28;45454;-63
2022/03/03 04:52:59;;;;;;;;;78.25;58.25;;;;;10.64;63.91;101235.69;5059729;28;45498;-64
2022/03/03 04:55:25;;;;;;;;;80.00;56.75;;;;;10.62;64.18;101232.28;5058042;28;45546;-64
2022/03/03 04:57:50;;;;;;;;;75.25;58.00;;;;;10.65;64.47;101221.81;5059398;28;45359;-64
2022/03/03 05:00:17;;;;;;;;;78.00;58.50;;;;;10.66;64.21;101215.72;5059664;28;45377;-64
2022/03/03 05:02:43;;;;;;;;;75.25;55.75;;;;;10.73;63.69;101228.59;5061421;28;45264;-64
2022/03/03 05:05:08;;;;;;;;;83.75;61.00;;;;;10.75;63.94;101229.41;5063000;28;45375;-64
2022/03/03 05:07:34;;;;;;;;;76.75;58.25;;;;;10.75;64.43;101230.28;5062976;28;46066;-63
2022/03/03 05:10:00;;;;;;;;;71.00;53.00;;;;;10.79;64.32;101228.47;5063125;28;45228;-64
2022/03/03 05:12:26;;;;;;;;;74.75;55.75;;;;;10.81;64.93;101227.56;5062952;28;45258;-64
2022/03/03 05:14:52;;;;;;;;;74.25;53.50;;;;;10.82;65.55;101229.28;5062869;28;45543;-64
2022/03/03 05:17:17;;;;;;;;;68.50;54.00;;;;;10.84;65.84;101224.06;5062776;28;45329;-64
2022/03/03 05:19:43;;;;;;;;;73.50;53.50;;;;;10.88;65.38;101230.88;5078218;28;45250;-63
2022/03/03 05:22:08;;;;;;;;;78.50;55.75;;;;;10.92;65.58;101222.13;5062644;28;45428;-66
2022/03/03 05:24:34;;;;;;;;;77.75;57.00;;;;;10.94;65.19;101228.16;5062893;28;45513;-63
2022/03/03 05:26:59;;;;;;;;;79.75;59.50;;;;;10.92;65.00;101222.13;5062716;28;45448;-63
2022/03/03 05:29:27;;;;;;;;;74.00;56.00;;;;;10.90;65.18;101223.91;5061583;28;45626;-64
2022/03/03 05:31:53;;;;;;;;;74.50;54.50;;;;;10.92;65.40;101227.34;5061200;28;45467;-66
2022/03/03 05:34:18;;;;;;;;;76.25;57.25;;;;;10.93;64.85;101229.03;5062628;28;45284;-64
2022/03/03 05:36:43;;;;;;;;;78.25;57.00;;;;;10.92;65.05;101230.78;5062203;28;45308;-65
2022/03/03 05:39:09;;;;;;;;;80.00;60.25;;;;;10.89;64.70;101230.00;5062570;28;45308;-64
2022/03/03 05:41:35;;;;;;;;;76.75;57.75;;;;;10.86;64.91;101232.66;5062620;28;45239;-63
2022/03/03 05:44:01;;;;;;;;;74.75;57.00;;;;;10.83;64.78;101227.53;5062399;28;45442;-62
2022/03/03 05:46:28;;;;;;;;;80.25;56.00;;;;;10.79;64.86;101225.88;5060414;28;48233;-62
2022/03/03 05:48:53;;;;;;;;;80.75;57.50;;;;;10.79;65.28;101228.47;5062337;28;45415;-62
2022/03/03 05:51:19;;;;;;;;;81.75;58.75;;;;;10.78;64.93;101230.22;5062275;28;45320;-61
2022/03/03 05:53:45;;;;;;;;;80.75;57.25;;;;;10.76;65.28;101233.72;5062280;28;45309;-62
2022/03/03 05:56:14;;;;;;;;;80.00;59.25;;;;;10.71;65.20;101226.03;5060624;28;46745;-63
2022/03/03 05:58:44;;;;;;;;;81.50;60.25;;;;;10.73;65.26;101236.41;5061299;28;45787;-62
2022/03/03 06:01:11;;;;;;;;;77.00;56.00;;;;;10.70;65.23;101224.31;5062047;28;45483;-62
2022/03/03 06:03:38;;;;;;;;;81.00;57.75;;;;;10.72;66.10;101227.75;5062376;28;45442;-62
2022/03/03 06:06:15;;;;;;;;;82.00;60.75;;;;;10.72;65.21;101226.88;5061632;28;45299;-62
2022/03/03 06:08:54;;;;;;;;;75.25;55.75;;;;;10.71;65.05;101222.56;5061626;28;45300;-61
2022/03/03 06:11:22;;;;;;;;;74.50;57.25;;;;;10.69;65.79;101221.75;5062222;28;45275;-62
2022/03/03 06:13:50;;;;;;;;;76.50;58.75;;;;;10.70;65.68;101215.66;5061184;28;45526;-63
2022/03/03 06:16:19;;;;;;;;;76.50;58.00;;;;;10.72;65.42;101219.09;5062004;28;45533;-63
2022/03/03 06:18:47;;;;;;;;;82.50;60.50;;;;;10.72;65.79;101214.75;5061766;28;45348;-64
2022/03/03 06:21:12;;;;;;;;;85.00;60.50;;;;;10.74;65.64;101217.31;5061586;28;45369;-63
2022/03/03 06:23:38;;;;;;;;;85.75;61.00;;;;;10.78;66.07;101232.81;5060102;28;45900;-64
2022/03/03 06:26:06;;;;;;;;;82.75;60.50;;;;;10.77;65.99;101227.63;5061683;28;46179;-64
2022/03/03 06:28:33;;;;;;;;;83.00;62.00;;;;;10.78;65.86;101234.56;5061366;28;45698;-64
2022/03/03 06:30:59;;;;;;;;;79.50;61.25;;;;;10.81;66.02;101230.16;5060289;28;45544;-64
2022/03/03 06:33:25;;;;;;;;;86.25;62.50;;;;;10.84;66.21;101242.25;5061534;28;45291;-64
2022/03/03 06:35:51;;;;;;;;;82.00;61.75;;;;;10.84;66.77;101239.66;5059666;28;47446;-64
2022/03/03 06:38:17;;;;;;;;;80.00;59.00;;;;;10.82;66.32;101237.09;5061395;28;45830;-64
2022/03/03 06:40:42;;;;;;;;;80.25;58.50;;;;;10.83;66.37;101240.53;5061797;28;45325;-64
2022/03/03 06:43:08;;;;;;;;;77.25;58.25;;;;;10.83;66.73;101237.94;5061231;28;45439;-63
2022/03/03 06:45:33;;;;;;;;;81.25;58.75;;;;;10.87;66.68;101244.78;5059632;28;47950;-63
2022/03/03 06:48:02;;;;;;;;;76.00;58.25;;;;;10.88;66.43;101239.53;5060878;28;45244;-62
2022/03/03 06:50:27;;;;;;;;;80.75;59.25;;;;;10.91;66.75;101242.06;5076823;27;45327;-64
2022/03/03 06:52:54;;;;;;;;;70.25;51.00;;;;;10.96;67.70;101248.03;5061115;28;45327;-65
2022/03/03 06:55:22;;;;;;;;;72.00;54.50;;;;;10.98;68.35;101245.41;5076800;27;46726;-65
2022/03/03 06:57:54;;;;;;;;;67.25;49.75;;;;;11.00;68.94;101243.63;5061081;28;45322;-64
2022/03/03 07:00:21;;;;;;;;;64.75;47.50;;;;;11.05;70.09;101248.75;5059994;28;45378;-64
2022/03/03 07:02:47;;;;;;;;;65.25;47.75;;;;;11.08;70.16;101240.88;5060959;28;45451;-64
2022/03/03 07:05:17;;;;;;;;;69.00;48.00;;;;;11.14;71.04;101248.53;5060619;28;46380;-64
2022/03/03 07:07:44;;;;;;;;;64.25;45.50;;;;;11.18;70.82;101255.38;5060631;28;45211;-63
2022/03/03 07:10:12;;;;;;;;;51.00;42.00;;;;;11.20;70.84;101243.19;5059621;28;45394;-64
2022/03/03 07:12:37;;;;;;;;;50.25;42.75;;;;;11.25;71.23;101252.63;5060463;28;45463;-64
2022/03/03 07:15:03;;;;;;;;;56.25;42.50;;;;;11.30;71.64;101254.25;5060981;28;45350;-65
2022/03/03 07:17:51;;;;;;;;;57.75;45.00;;;;;11.32;71.15;101258.53;5059446;28;45704;-64
2022/03/03 07:20:38;;;;;;;;;56.00;43.75;;;;;11.38;71.96;101249.72;5060484;28;46444;-64
2022/03/03 07:23:12;;;;;;;;;57.50;43.00;;;;;11.42;72.29;101254.00;5059452;28;45503;-64
2022/03/03 07:25:39;;;;;;;;;54.50;43.75;;;;;11.46;72.43;101256.50;5059486;28;46511;-64
2022/03/03 07:28:10;;;;;;;;;64.50;45.50;;;;;11.49;72.26;101250.34;5060584;28;45286;-63
2022/03/03 07:30:41;;;;;;;;;59.75;44.75;;;;;11.56;72.57;101251.91;5060910;28;45192;-63
2022/03/03 07:33:10;;;;;;;;;55.75;43.00;;;;;11.58;72.60;101256.19;5058420;28;45536;-63
2022/03/03 07:35:40;;;;;;;;;63.25;48.25;;;;;11.67;72.17;101257.75;5060269;28;45576;-63
2022/03/03 07:38:19;;;;;;;;;66.50;50.25;;;;;11.69;72.44;101258.56;5060093;28;45461;-63
2022/03/03 07:40:44;;;;;;;;;60.50;47.75;;;;;11.70;71.48;101260.25;5060868;28;45351;-63
2022/03/03 07:43:12;;;;;;;;;66.25;48.75;;;;;11.73;72.04;101248.91;5060528;28;45235;-63
2022/03/03 07:45:39;;;;;;;;;69.25;53.50;;;;;11.73;72.26;101247.16;5060306;28;45457;-63
2022/03/03 07:48:05;;;;;;;;;67.00;46.75;;;;;11.78;72.66;101257.47;5060093;28;45476;-63
2022/03/03 07:50:30;;;;;;;;;59.25;45.75;;;;;11.82;72.53;101253.97;5060715;28;45437;-63
2022/03/03 07:52:56;;;;;;;;;60.25;47.00;;;;;11.89;72.42;101258.09;5058791;28;45520;-63
2022/03/03 07:55:22;;;;;;;;;63.00;46.50;;;;;11.92;72.41;101254.56;5058658;28;47233;-62
2022/03/03 07:58:12;;;;;;;;;59.25;47.00;;;;;11.93;72.27;101253.66;5059928;28;45342;-62
2022/03/03 08:00:43;;;;;;;;;56.75;45.75;;;;;11.98;71.94;101251.81;5059769;28;45243;-62
2022/03/03 08:03:13;;;;;;;;;58.00;44.25;;;;;11.99;72.13;101254.38;5058193;28;45447;-62
2022/03/03 08:05:40;;;;;;;;;63.50;46.00;;;;;11.96;72.38;101251.84;5059406;28;45552;-62
2022/03/03 08:08:10;;;;;;;;;60.50;43.25;;;;;12.01;72.05;101254.31;5059987;28;45402;-62
2022/03/03 08:10:40;;;;;;;;;65.75;48.25;;;;;12.10;72.45;101251.50;5060043;28;45219;-62
2022/03/03 08:13:08;;;;;;;;;60.75;45.75;;;;;12.18;72.13;101245.19;5059934;28;45396;-62
2022/03/03 08:15:38;;;;;;;;;59.00;47.00;;;;;12.26;71.96;101239.78;5059061;28;46478;-62
2022/03/03 08:18:04;;;;;;;;;65.75;48.25;;;;;12.34;71.92;101245.66;5060107;28;45794;-61
2022/03/03 08:20:30;;;;;;;;;64.50;47.00;;;;;12.44;71.64;101249.72;5059279;28;45488;-65
2022/03/03 08:22:59;;;;;;;;;64.25;46.25;;;;;12.51;71.43;101239.97;5059834;28;45401;-64
2022/03/03 08:25:25;;;;;;;;;58.00;45.25;;;;;12.47;71.13;101234.00;5059568;28;46042;-64
2022/03/03 08:27:52;;;;;;;;;61.25;48.50;;;;;12.49;71.61;101233.97;5059891;28;45144;-64
2022/03/03 08:30:18;;;;;;;;;60.50;44.00;;;;;12.53;71.12;101243.41;5059542;28;45449;-64
2022/03/03 08:32:50;;;;;;;;;56.00;44.25;;;;;12.57;71.33;101244.16;5059773;28;45510;-64
2022/03/03 08:35:18;;;;;;;;;65.50;50.25;;;;;12.60;71.42;101241.47;5058030;28;47379;-65
2022/03/03 08:37:52;;;;;;;;;70.75;47.75;;;;;12.72;70.78;101243.75;5058392;28;45237;-63
2022/03/03 08:40:18;;;;;;;;;54.75;42.50;;;;;12.75;70.96;101241.91;5060161;28;45253;-64
2022/03/03 08:42:48;;;;;;;;;63.75;45.25;;;;;12.80;70.35;101236.53;5059708;28;45211;-63
2022/03/03 08:45:18;;;;;;;;;62.75;46.75;;;;;12.85;70.58;101239.91;5059834;28;46170;-64
2022/03/03 08:47:44;;;;;;;;;60.50;44.50;;;;;12.94;70.59;101243.97;5058971;28;45783;-63
2022/03/03 08:50:13;;;;;;;;;59.00;45.50;;;;;13.00;70.36;101249.00;5056974;28;45452;-64
2022/03/03 08:52:42;;;;;;;;;66.25;46.75;;;;;13.03;69.80;101244.59;5057654;28;45548;-63
2022/03/03 08:55:10;;;;;;;;;63.75;46.50;;;;;13.05;70.36;101242.78;5091327;27;47174;-65
2022/03/03 08:57:38;;;;;;;;;58.75;43.75;;;;;13.14;69.63;101248.63;5059315;28;46033;-64
2022/03/03 09:00:08;;;;;;;;;62.00;47.00;;;;;13.17;69.86;101251.13;5059562;28;45507;-64
2022/03/03 09:02:33;;;;;;;;;56.75;44.50;;;;;13.17;69.88;101246.75;5059085;28;45226;-64
2022/03/03 09:04:59;;;;;;;;;60.00;45.25;;;;;13.25;69.51;101250.06;5059123;28;46420;-65
2022/03/03 09:07:24;;;;;;;;;61.00;48.75;;;;;13.28;69.42;101251.72;5059289;28;45366;-64
2022/03/03 09:09:49;;;;;;;;;42.25;34.50;;;;;13.31;69.09;101255.06;5059894;28;45429;-65
2022/03/03 09:12:15;;;;;;;;;54.75;40.00;;;;;13.34;68.89;101249.75;5059032;28;45333;-64
2022/03/03 09:14:41;;;;;;;;;63.00;44.75;;;;;13.33;69.00;101258.50;5059128;28;45328;-65
2022/03/03 09:17:07;;;;;;;;;60.25;44.25;;;;;13.36;69.14;101255.78;5058934;28;46031;-63
2022/03/03 09:19:32;;;;;;;;;58.50;43.75;;;;;13.44;68.94;101249.47;5059115;28;45354;-63
2022/03/03 09:21:58;;;;;;;;;57.75;44.00;;;;;13.50;68.59;101254.50;5091411;27;45373;-64
2022/03/03 09:24:23;;;;;;;;;56.25;43.25;;;;;13.55;68.78;101249.97;5058615;28;46413;-64
2022/03/03 09:26:54;;;;;;;;;61.00;46.25;;;;;13.56;68.20;101255.16;5074115;28;45293;-63
2022/03/03 09:29:20;;;;;;;;;56.75;43.00;;;;;13.61;68.17;101255.84;5059381;28;45327;-64
2022/03/03 09:31:46;;;;;;;;;59.25;44.50;;;;;13.64;68.48;101265.38;5091399;27;45442;-62
2022/03/03 09:34:12;;;;;;;;;62.50;45.25;;;;;13.65;68.15;101249.66;5059063;28;45732;-64
2022/03/03 09:36:37;;;;;;;;;59.50;44.25;;;;;13.67;67.96;101247.00;5057098;28;45530;-65
2022/03/03 09:39:05;;;;;;;;;58.75;47.00;;;;;13.66;67.97;101253.97;5058893;28;45382;-62
2022/03/03 09:41:31;;;;;;;;;58.50;43.25;;;;;13.57;67.85;101251.63;5058818;28;45251;-62
2022/03/03 09:43:57;;;;;;;;;52.75;41.00;;;;;13.55;67.87;101236.94;5058511;28;46195;-63
2022/03/03 09:46:23;;;;;;;;;59.50;43.25;;;;;13.59;67.98;101246.38;5056608;28;45305;-62
2022/03/03 09:48:49;;;;;;;;;57.50;44.00;;;;;13.61;67.99;101239.34;5060606;28;45386;-63
2022/03/03 09:51:14;;;;;;;;;60.50;46.50;;;;;13.62;67.38;101243.69;5061481;28;45543;-63
2022/03/03 09:53:41;;;;;;;;;59.75;45.00;;;;;13.66;67.97;101251.38;5061607;28;45368;-63
2022/03/03 09:56:06;;;;;;;;;58.25;44.00;;;;;13.73;67.60;101256.38;5061961;28;45411;-63
2022/03/03 09:58:32;;;;;;;;;57.50;44.50;;;;;13.75;67.56;101252.81;5062305;28;45429;-63
2022/03/03 10:00:57;;;;;;;;;57.25;45.75;;;;;13.78;67.50;101251.84;5060347;28;46282;-63
2022/03/03 10:03:30;;;;;;;;;59.00;43.75;;;;;13.72;67.50;101249.44;5061564;28;45926;-63
2022/03/03 10:05:59;;;;;;;;;62.75;47.00;;;;;13.73;67.68;101251.16;5061079;28;45251;-68
2022/03/03 10:08:25;;;;;;;;;59.00;46.75;;;;;13.74;67.62;101243.28;5061352;28;45529;-63
2022/03/03 10:10:54;;;;;;;;;58.75;44.00;;;;;13.80;67.50;101253.50;5061138;28;45422;-63
2022/03/03 10:13:20;;;;;;;;;56.50;42.25;;;;;13.82;67.47;101246.50;5093502;27;48661;-64
2022/03/03 10:15:51;;;;;;;;;55.25;42.25;;;;;13.86;67.42;101248.09;5061095;28;45988;-64
2022/03/03 10:18:19;;;;;;;;;64.00;45.50;;;;;13.89;67.06;101244.53;5061770;28;45359;-65
2022/03/03 10:20:55;;;;;;;;;53.00;42.75;;;;;13.88;67.18;101243.69;5059358;28;45707;-64
2022/03/03 10:23:28;;;;;;;;;59.00;45.75;;;;;13.98;66.91;101246.84;5059824;28;47271;-68
2022/03/03 10:25:55;;;;;;;;;59.75;45.25;;;;;13.99;66.98;101240.69;5061215;28;45786;-64
2022/03/03 10:28:24;;;;;;;;;54.75;40.75;;;;;13.99;66.51;101240.69;5060491;28;45351;-64
2022/03/03 10:31:00;;;;;;;;;55.25;44.00;;;;;14.01;66.61;101241.50;5061304;28;45247;-65
2022/03/03 10:33:49;;;;;;;;;65.50;45.25;;;;;14.01;66.80;101236.28;5061581;28;46572;-64
2022/03/03 10:36:31;;;;;;;;;55.50;41.75;;;;;14.03;66.39;101234.50;5052868;28;45872;-65
2022/03/03 10:38:56;;;;;;;;;55.50;44.50;;;;;13.86;66.55;101242.88;5061965;28;45162;-64
2022/03/03 10:41:51;;;;;;;;;60.75;44.75;;;;;13.73;67.11;101245.94;5061434;28;45524;-65
2022/03/03 10:44:23;;;;;;;;;65.25;46.50;;;;;13.74;67.22;101240.66;5061097;28;46145;-65
2022/03/03 10:47:08;;;;;;;;;63.75;47.25;;;;;13.79;67.17;101241.34;5059624;28;45499;-67
2022/03/03 10:49:39;;;;;;;;;64.75;47.75;;;;;13.83;67.20;101237.75;5059866;28;45359;-67
2022/03/03 10:52:19;;;;;;;;;58.50;44.00;;;;;13.85;66.84;101249.00;5061107;28;45334;-67
2022/03/03 10:54:53;;;;;;;;;63.00;45.75;;;;;13.82;67.29;101237.81;5060627;28;46585;-68
2022/03/03 10:58:00;;;;;;;;;62.50;47.25;;;;;13.88;67.29;101245.44;5060901;28;45307;-67
2022/03/03 11:00:30;;;;;;;;;51.00;43.75;;;;;13.96;67.01;101243.41;5050812;28;45299;-67
2022/03/03 11:03:01;;;;;;;;;59.75;43.75;;;;;14.04;66.67;101237.94;5060498;28;45350;-67
2022/03/03 11:05:29;;;;;;;;;55.75;41.00;;;;;14.15;66.45;101230.59;5060588;28;45378;-61
2022/03/03 11:07:56;;;;;;;;;60.00;45.50;;;;;14.16;66.22;101238.38;5061075;28;45327;-59
2022/03/03 11:10:26;;;;;;;;;56.75;45.25;;;;;14.14;66.01;101234.09;5060774;28;45481;-61
2022/03/03 11:12:52;;;;;;;;;53.75;40.75;;;;;14.07;65.42;101238.69;5061280;28;45244;-61